Terminal Aerodrome Forecast
Issued by NWS

Home | Current Version | Previous Version | Text Only | Print | Product List | Glossary On
Versions: 1 2 3 4 5 6 7 8 9 10 11 12 13 14
000
FTUS46 KPDT 022300
TAFALW
TAF
KALW 022322Z 0300/0324 24014G22KT P6SM SKC
     FM030200 24017G25KT P6SM FEW080
     FM030600 21014KT P6SM SCT070
     FM030900 20011KT P6SM SCT080
     FM031900 23009KT P6SM FEW090=

USA.gov is the U.S. government's official web portal to all federal, state and local government web resources and services.